createdAt,value
2023-06-30T00:01:51.462Z,16.30
2023-06-30T00:05:53.140Z,16.30
2023-06-30T00:09:54.719Z,16.30
2023-06-30T00:13:56.512Z,16.20
2023-06-30T00:17:58.134Z,16.30
2023-06-30T00:21:59.829Z,16.20
2023-06-30T00:26:02.434Z,16.10
2023-06-30T00:30:04.476Z,16.00
2023-06-30T00:34:06.076Z,15.90
2023-06-30T00:38:07.687Z,15.90
2023-06-30T00:42:09.549Z,15.90
2023-06-30T00:46:13.136Z,15.90
2023-06-30T00:50:14.773Z,15.80
2023-06-30T00:54:16.539Z,15.70
2023-06-30T00:58:18.558Z,15.80
2023-06-30T01:02:22.334Z,15.60
2023-06-30T01:06:44.164Z,15.60
2023-06-30T01:10:46.047Z,15.50
2023-06-30T01:14:48.573Z,15.50
2023-06-30T01:18:53.972Z,15.40
2023-06-30T01:22:57.809Z,15.30
2023-06-30T01:26:59.412Z,15.10
2023-06-30T01:31:01.738Z,14.90
2023-06-30T01:35:03.402Z,14.80
2023-06-30T01:39:05.034Z,14.90
2023-06-30T01:43:07.019Z,14.80
2023-06-30T01:47:10.288Z,14.70
2023-06-30T01:51:12.256Z,14.80
2023-06-30T01:55:13.804Z,14.70
2023-06-30T01:59:15.680Z,14.60
2023-06-30T02:03:17.381Z,14.50
2023-06-30T02:07:19.036Z,14.60
2023-06-30T02:11:21.375Z,14.70
2023-06-30T02:15:23.063Z,14.60
2023-06-30T02:19:25.181Z,14.60
2023-06-30T02:23:29.445Z,14.50
2023-06-30T02:27:33.285Z,14.60
2023-06-30T02:31:35.711Z,14.50
2023-06-30T02:35:37.383Z,14.40
2023-06-30T02:39:39.039Z,14.50
2023-06-30T02:43:40.771Z,14.40
2023-06-30T02:47:42.331Z,14.40
2023-06-30T02:51:43.934Z,14.30
2023-06-30T02:55:45.923Z,14.10
2023-06-30T02:59:47.626Z,14.20
2023-06-30T03:03:49.584Z,14.20
2023-06-30T03:07:51.318Z,14.20
2023-06-30T03:11:52.912Z,14.20
2023-06-30T03:15:54.545Z,14.20
2023-06-30T03:19:56.087Z,14.20
2023-06-30T03:23:57.734Z,14.00
2023-06-30T03:28:02.310Z,13.90
2023-06-30T03:32:04.050Z,14.00
2023-06-30T03:36:05.779Z,13.90
2023-06-30T03:40:07.934Z,14.00
2023-06-30T03:44:09.560Z,13.90
2023-06-30T03:48:11.116Z,13.90
2023-06-30T03:52:12.703Z,13.90
2023-06-30T03:56:14.320Z,13.90
2023-06-30T04:00:16.149Z,13.90
2023-06-30T04:04:17.822Z,14.00
2023-06-30T04:08:19.989Z,13.90
2023-06-30T04:12:21.733Z,13.90
2023-06-30T04:16:23.392Z,13.90
2023-06-30T04:20:25.075Z,13.90
2023-06-30T04:24:26.717Z,14.00
2023-06-30T04:28:28.290Z,13.90
2023-06-30T04:32:29.969Z,13.90
2023-06-30T04:36:31.595Z,13.90
2023-06-30T04:40:33.148Z,13.80
2023-06-30T04:44:34.799Z,13.70
2023-06-30T04:48:36.592Z,13.60
2023-06-30T04:52:38.225Z,13.10
2023-06-30T04:56:39.792Z,13.30
2023-06-30T05:00:41.936Z,13.60
2023-06-30T05:04:43.591Z,13.90
2023-06-30T05:08:45.211Z,14.00
2023-06-30T05:12:49.562Z,13.90
2023-06-30T05:16:51.298Z,14.10
2023-06-30T05:20:53.180Z,14.30
2023-06-30T05:24:54.850Z,14.40
2023-06-30T05:29:04.751Z,14.50
2023-06-30T05:33:07.183Z,14.60
2023-06-30T05:37:08.877Z,14.70
2023-06-30T05:41:10.640Z,14.50
2023-06-30T05:45:12.318Z,14.80
2023-06-30T05:49:13.977Z,15.00
2023-06-30T05:53:15.590Z,14.90
2023-06-30T05:57:17.303Z,14.80
2023-06-30T06:01:18.991Z,14.70
2023-06-30T06:05:20.718Z,14.60
2023-06-30T06:09:22.541Z,14.80
2023-06-30T06:13:37.410Z,14.60
2023-06-30T06:17:38.985Z,14.50
2023-06-30T06:21:40.658Z,14.40
2023-06-30T06:25:43.237Z,14.60
2023-06-30T06:29:47.074Z,14.50
2023-06-30T06:33:48.676Z,14.60
2023-06-30T06:37:50.298Z,14.60
2023-06-30T06:41:51.940Z,14.60
2023-06-30T06:45:53.707Z,14.60
2023-06-30T06:49:55.327Z,14.70
2023-06-30T06:53:57.013Z,14.70
2023-06-30T06:57:58.662Z,14.70
2023-06-30T07:02:00.305Z,14.80
2023-06-30T07:06:02.122Z,14.80
2023-06-30T07:10:04.088Z,15.00
2023-06-30T07:14:05.682Z,14.90
2023-06-30T07:18:07.510Z,14.90
2023-06-30T07:22:09.300Z,15.00
2023-06-30T07:26:10.974Z,15.10
2023-06-30T07:30:12.994Z,15.50
2023-06-30T07:34:15.647Z,15.40
2023-06-30T07:38:17.416Z,15.40
2023-06-30T07:42:19.161Z,15.90
2023-06-30T07:46:20.811Z,15.90
2023-06-30T07:50:22.578Z,16.20
2023-06-30T07:54:24.271Z,16.50
2023-06-30T07:58:26.560Z,16.40
2023-06-30T08:02:28.197Z,16.40
2023-06-30T08:06:29.876Z,16.70
2023-06-30T08:10:31.492Z,16.50
2023-06-30T08:14:33.892Z,16.70
2023-06-30T08:18:35.606Z,17.00
2023-06-30T08:22:37.242Z,17.10
2023-06-30T08:26:38.841Z,16.90
2023-06-30T08:30:40.443Z,16.90
2023-06-30T08:34:42.078Z,16.70
2023-06-30T08:38:43.690Z,17.20
2023-06-30T08:42:46.625Z,16.90
2023-06-30T08:46:48.406Z,17.10
2023-06-30T08:50:50.818Z,17.20
2023-06-30T08:54:52.520Z,17.10
2023-06-30T08:58:54.163Z,17.10
2023-06-30T09:02:56.343Z,17.00
2023-06-30T09:06:59.806Z,17.50
2023-06-30T09:11:05.452Z,18.00
2023-06-30T09:15:10.113Z,17.60
2023-06-30T09:19:12.802Z,17.40
2023-06-30T09:23:15.276Z,17.10
2023-06-30T09:27:17.572Z,17.40
2023-06-30T09:31:19.406Z,18.10
2023-06-30T09:35:21.005Z,17.60
2023-06-30T09:39:23.497Z,18.20
2023-06-30T09:43:26.789Z,17.60
2023-06-30T09:47:28.615Z,18.20
2023-06-30T09:51:31.673Z,18.10
2023-06-30T09:55:33.306Z,17.80
2023-06-30T09:59:34.987Z,18.10
2023-06-30T10:03:47.009Z,18.70
2023-06-30T10:07:48.749Z,18.40
2023-06-30T10:11:51.505Z,18.60
2023-06-30T10:15:53.452Z,18.40
2023-06-30T10:19:55.500Z,19.20
2023-06-30T10:23:57.881Z,19.40
2023-06-30T10:27:59.670Z,19.20
2023-06-30T10:32:01.311Z,18.70
2023-06-30T10:36:03.349Z,18.60
2023-06-30T10:40:09.361Z,18.90
2023-06-30T10:44:11.372Z,19.40
2023-06-30T10:48:16.053Z,19.60
2023-06-30T10:52:26.514Z,19.70
2023-06-30T10:56:28.946Z,19.50
2023-06-30T11:00:34.707Z,19.60
2023-06-30T11:04:36.831Z,19.30
2023-06-30T11:08:38.564Z,19.40
2023-06-30T11:12:53.512Z,19.50
2023-06-30T11:17:05.304Z,19.40
2023-06-30T11:21:07.595Z,19.20
2023-06-30T11:25:12.155Z,19.80
2023-06-30T11:29:13.880Z,19.50
2023-06-30T11:33:15.630Z,20.10
2023-06-30T11:37:17.986Z,19.70
2023-06-30T11:41:20.430Z,19.90
2023-06-30T11:45:22.301Z,19.80
2023-06-30T11:49:23.904Z,20.30
2023-06-30T11:53:25.529Z,19.90
2023-06-30T11:57:27.097Z,19.70
2023-06-30T12:01:28.958Z,19.60
2023-06-30T12:05:30.701Z,20.00
2023-06-30T12:09:35.942Z,20.00
2023-06-30T12:13:38.854Z,20.20
2023-06-30T12:17:43.330Z,20.30
2023-06-30T12:21:55.584Z,20.60
2023-06-30T12:25:57.800Z,20.00
2023-06-30T12:30:00.303Z,20.50
2023-06-30T12:34:01.981Z,20.30
2023-06-30T12:38:05.704Z,20.30
2023-06-30T12:42:08.173Z,20.70
2023-06-30T12:46:09.773Z,20.80
2023-06-30T12:50:11.601Z,21.10
2023-06-30T12:54:13.146Z,21.70
2023-06-30T12:58:14.776Z,21.10
2023-06-30T13:02:16.412Z,20.60
2023-06-30T13:06:18.068Z,21.10
2023-06-30T13:10:19.737Z,20.80
2023-06-30T13:14:21.414Z,20.60
2023-06-30T13:18:23.021Z,21.10
2023-06-30T13:22:24.629Z,21.00
2023-06-30T13:26:26.305Z,21.30
2023-06-30T13:30:28.572Z,20.90
2023-06-30T13:34:30.318Z,21.00
2023-06-30T13:38:32.030Z,20.70
2023-06-30T13:42:35.248Z,20.80
2023-06-30T13:46:36.939Z,21.00
2023-06-30T13:50:38.713Z,21.20
2023-06-30T13:54:41.600Z,20.70
2023-06-30T13:58:43.889Z,20.90
2023-06-30T14:02:45.544Z,20.90
2023-06-30T14:06:47.337Z,21.10
2023-06-30T14:10:49.094Z,21.20
2023-06-30T14:14:50.840Z,20.90
2023-06-30T14:18:52.832Z,21.00
2023-06-30T14:22:54.459Z,20.70
2023-06-30T14:26:56.170Z,21.00
2023-06-30T14:30:57.800Z,21.20
2023-06-30T14:34:59.438Z,20.90
2023-06-30T14:39:01.078Z,20.90
2023-06-30T14:43:02.959Z,21.10
2023-06-30T14:47:04.613Z,21.20
2023-06-30T14:51:06.265Z,21.00
2023-06-30T14:55:08.037Z,21.10
2023-06-30T14:59:09.839Z,21.10
2023-06-30T15:03:12.356Z,21.20
2023-06-30T15:07:14.131Z,21.20
2023-06-30T15:11:15.757Z,21.40
2023-06-30T15:15:17.447Z,21.20
2023-06-30T15:19:19.374Z,21.10
2023-06-30T15:23:23.959Z,21.20
2023-06-30T15:27:26.220Z,21.10
2023-06-30T15:31:28.020Z,21.10
2023-06-30T15:35:32.695Z,21.00
2023-06-30T15:39:34.301Z,21.20
2023-06-30T15:43:35.937Z,21.20
2023-06-30T15:47:37.598Z,21.50
2023-06-30T15:51:39.521Z,21.10
2023-06-30T15:55:43.573Z,21.20
2023-06-30T15:59:45.384Z,21.20
2023-06-30T16:03:58.122Z,21.40
2023-06-30T16:07:59.896Z,20.90
2023-06-30T16:12:01.623Z,21.00
2023-06-30T16:16:03.263Z,21.10
2023-06-30T16:20:06.027Z,21.00
2023-06-30T16:24:07.655Z,21.00
2023-06-30T16:28:09.366Z,20.90
2023-06-30T16:32:11.027Z,20.90
2023-06-30T16:36:12.647Z,20.90
2023-06-30T16:40:14.558Z,21.00
2023-06-30T16:44:16.293Z,21.10
2023-06-30T16:48:17.922Z,21.10
2023-06-30T16:52:19.599Z,20.80
2023-06-30T16:56:21.160Z,21.10
2023-06-30T17:00:23.540Z,21.40
2023-06-30T17:04:25.618Z,21.30
2023-06-30T17:08:27.813Z,21.50
2023-06-30T17:12:29.434Z,21.50
2023-06-30T17:16:31.065Z,21.60
2023-06-30T17:20:32.700Z,21.50
2023-06-30T17:24:34.263Z,21.30
2023-06-30T17:28:35.934Z,21.70
2023-06-30T17:32:38.086Z,21.50
2023-06-30T17:36:40.138Z,21.80
2023-06-30T17:40:43.896Z,21.80
2023-06-30T17:44:45.499Z,21.60
2023-06-30T17:48:55.412Z,21.60
2023-06-30T17:52:57.070Z,21.20
2023-06-30T17:56:59.339Z,21.20
2023-06-30T18:01:01.139Z,21.10
2023-06-30T18:05:03.178Z,21.10
2023-06-30T18:09:04.872Z,21.10
2023-06-30T18:13:06.474Z,21.30
2023-06-30T18:17:08.138Z,21.30
2023-06-30T18:21:12.513Z,21.40
2023-06-30T18:25:14.365Z,21.30
2023-06-30T18:29:16.680Z,21.30
2023-06-30T18:33:18.383Z,21.10
2023-06-30T18:37:20.584Z,21.10
2023-06-30T18:41:24.254Z,20.90
2023-06-30T18:45:25.840Z,20.80
2023-06-30T18:49:27.567Z,20.90
2023-06-30T18:53:29.322Z,21.10
2023-06-30T18:57:31.133Z,20.90
2023-06-30T19:01:32.931Z,20.80
2023-06-30T19:05:34.576Z,20.90
2023-06-30T19:09:36.768Z,20.90
2023-06-30T19:13:38.482Z,20.60
2023-06-30T19:17:40.191Z,20.80
2023-06-30T19:21:42.104Z,20.60
2023-06-30T19:25:45.018Z,20.50
2023-06-30T19:29:48.606Z,20.40
2023-06-30T19:33:50.290Z,20.30
2023-06-30T19:37:51.983Z,20.10
2023-06-30T19:41:58.673Z,19.80
2023-06-30T19:46:01.378Z,19.70
2023-06-30T19:50:03.099Z,19.80
2023-06-30T19:54:04.752Z,19.80
2023-06-30T19:58:08.943Z,19.70
2023-06-30T20:02:12.273Z,19.60
2023-06-30T20:06:13.956Z,19.40
2023-06-30T20:10:15.637Z,19.30
2023-06-30T20:14:17.354Z,19.20
2023-06-30T20:18:21.517Z,19.20
2023-06-30T20:22:23.395Z,19.10
2023-06-30T20:30:52.231Z,18.60
2023-06-30T20:34:53.929Z,18.60
2023-06-30T20:38:59.431Z,18.30
2023-06-30T20:43:03.658Z,18.20
2023-06-30T20:47:47.758Z,18.30
2023-06-30T20:51:51.603Z,18.30
2023-06-30T20:55:56.050Z,18.30
2023-06-30T20:59:57.750Z,18.30
2023-06-30T21:03:59.499Z,18.40
2023-06-30T21:08:01.112Z,18.40
2023-06-30T21:12:03.021Z,18.20
2023-06-30T21:16:09.011Z,18.00
2023-06-30T21:20:11.122Z,17.70
2023-06-30T21:24:12.768Z,17.70
2023-06-30T21:28:17.145Z,17.80
2023-06-30T21:32:18.890Z,17.90
2023-06-30T21:36:20.595Z,17.60
2023-06-30T21:40:22.291Z,17.50
2023-06-30T21:44:24.061Z,17.80
2023-06-30T21:48:25.983Z,17.90
2023-06-30T21:52:27.669Z,17.80
2023-06-30T21:56:29.335Z,17.20
2023-06-30T22:00:30.992Z,17.30
2023-06-30T22:04:33.182Z,17.50
2023-06-30T22:08:34.881Z,17.40
2023-06-30T22:12:36.657Z,17.50
2023-06-30T22:16:38.322Z,17.60
2023-06-30T22:20:39.990Z,17.90
2023-06-30T22:24:41.656Z,18.00
2023-06-30T22:28:43.311Z,18.10
2023-06-30T22:32:44.913Z,18.20
2023-06-30T22:36:46.646Z,18.20
2023-06-30T22:40:48.626Z,18.40
2023-06-30T22:44:50.808Z,18.30
2023-06-30T22:48:52.430Z,18.30
2023-06-30T22:52:54.148Z,18.40
2023-06-30T22:56:55.969Z,18.40
2023-06-30T23:00:57.620Z,18.40
2023-06-30T23:04:59.399Z,18.40
2023-06-30T23:09:02.874Z,18.50
2023-06-30T23:13:04.504Z,18.50
2023-06-30T23:17:07.309Z,18.50
2023-06-30T23:21:12.118Z,18.50
2023-06-30T23:25:14.416Z,18.50
2023-06-30T23:29:16.121Z,18.40
2023-06-30T23:33:17.968Z,18.50
2023-06-30T23:37:19.620Z,18.50
2023-06-30T23:41:21.290Z,18.50
2023-06-30T23:45:22.981Z,18.30
2023-06-30T23:49:24.674Z,18.40
2023-06-30T23:53:27.689Z,18.40
2023-06-30T23:57:29.331Z,18.30
